createdAt,value
2023-08-19T00:01:26.352Z,22.52
2023-08-19T00:03:57.848Z,22.55
2023-08-19T00:06:43.166Z,22.51
2023-08-19T00:09:14.239Z,22.49
2023-08-19T00:11:44.390Z,22.49
2023-08-19T00:14:15.160Z,22.43
2023-08-19T00:16:46.396Z,22.43
2023-08-19T00:19:20.186Z,22.41
2023-08-19T00:24:25.746Z,22.34
2023-08-19T00:26:56.054Z,22.31
2023-08-19T00:29:26.159Z,22.27
2023-08-19T00:31:56.845Z,22.15
2023-08-19T00:34:27.167Z,22.23
2023-08-19T00:36:57.885Z,22.19
2023-08-19T00:39:30.592Z,22.16
2023-08-19T00:42:01.402Z,22.14
2023-08-19T00:44:34.832Z,22.14
2023-08-19T00:47:08.450Z,22.09
2023-08-19T00:49:38.721Z,22.04
2023-08-19T00:52:09.483Z,21.97
2023-08-19T00:54:45.004Z,22.02
2023-08-19T00:57:15.747Z,22.01
2023-08-19T00:59:54.536Z,21.98
2023-08-19T01:02:24.651Z,21.96
2023-08-19T01:04:58.155Z,21.94
2023-08-19T01:07:34.327Z,21.92
2023-08-19T01:10:22.418Z,21.89
2023-08-19T01:13:00.959Z,21.82
2023-08-19T01:15:36.743Z,21.79
2023-08-19T01:18:13.629Z,21.78
2023-08-19T01:20:45.269Z,21.72
2023-08-19T01:23:20.311Z,21.70
2023-08-19T01:26:02.712Z,21.65
2023-08-19T01:28:32.917Z,21.61
2023-08-19T01:31:10.639Z,21.59
2023-08-19T01:33:57.334Z,21.58
2023-08-19T01:36:36.018Z,21.52
2023-08-19T01:39:09.484Z,21.53
2023-08-19T01:41:43.240Z,21.51
2023-08-19T01:44:13.742Z,21.47
2023-08-19T01:46:43.985Z,21.43
2023-08-19T01:49:16.144Z,21.40
2023-08-19T01:51:48.301Z,21.35
2023-08-19T01:54:18.674Z,21.34
2023-08-19T01:56:54.985Z,21.34
2023-08-19T01:59:27.467Z,21.36
2023-08-19T02:01:57.711Z,21.30
2023-08-19T02:04:28.456Z,21.35
2023-08-19T02:06:59.132Z,21.33
2023-08-19T02:09:30.401Z,21.32
2023-08-19T02:12:03.626Z,21.28
2023-08-19T02:14:33.813Z,21.23
2023-08-19T02:17:04.159Z,21.17
2023-08-19T02:19:34.451Z,21.13
2023-08-19T02:22:05.732Z,21.12
2023-08-19T02:24:35.893Z,21.10
2023-08-19T02:27:08.803Z,21.07
2023-08-19T02:29:38.989Z,21.06
2023-08-19T02:32:09.337Z,21.02
2023-08-19T02:34:41.399Z,20.98
2023-08-19T02:37:14.654Z,20.96
2023-08-19T02:39:44.890Z,20.82
2023-08-19T02:42:18.195Z,20.93
2023-08-19T02:44:49.302Z,20.90
2023-08-19T02:47:23.686Z,20.91
2023-08-19T02:49:53.880Z,20.89
2023-08-19T02:52:24.118Z,20.80
2023-08-19T02:54:54.333Z,20.82
2023-08-19T02:57:27.813Z,20.73
2023-08-19T03:00:01.740Z,20.82
2023-08-19T03:02:34.426Z,20.75
2023-08-19T03:05:05.636Z,20.79
2023-08-19T03:07:36.183Z,20.77
2023-08-19T03:10:08.386Z,20.80
2023-08-19T03:12:41.268Z,20.79
2023-08-19T03:15:12.521Z,20.78
2023-08-19T03:17:45.681Z,20.77
2023-08-19T03:20:16.488Z,20.76
2023-08-19T03:22:46.779Z,20.73
2023-08-19T03:25:20.337Z,20.53
2023-08-19T03:27:56.335Z,20.72
2023-08-19T03:30:30.366Z,20.72
2023-08-19T03:33:00.850Z,20.72
2023-08-19T03:35:31.311Z,20.59
2023-08-19T03:38:01.613Z,20.71
2023-08-19T03:40:31.771Z,20.71
2023-08-19T03:43:13.127Z,20.69
2023-08-19T03:45:47.442Z,20.70
2023-08-19T03:48:17.761Z,20.70
2023-08-19T03:50:47.983Z,20.69
2023-08-19T03:53:18.310Z,20.68
2023-08-19T03:55:52.601Z,20.62
2023-08-19T03:58:25.279Z,20.55
2023-08-19T04:01:09.184Z,20.66
2023-08-19T04:03:43.051Z,20.68
2023-08-19T04:06:13.946Z,20.69
2023-08-19T04:08:44.213Z,20.70
2023-08-19T04:11:14.472Z,20.72
2023-08-19T04:13:49.331Z,20.71
2023-08-19T04:16:19.797Z,20.76
2023-08-19T04:18:50.321Z,20.84
2023-08-19T04:21:21.127Z,21.03
2023-08-19T04:23:53.850Z,21.15
2023-08-19T04:26:23.870Z,21.21
2023-08-19T04:28:56.499Z,21.25
2023-08-19T04:31:27.255Z,21.34
2023-08-19T04:34:00.982Z,21.28
2023-08-19T04:36:31.386Z,21.21
2023-08-19T04:39:02.851Z,21.21
2023-08-19T04:41:34.404Z,21.23
2023-08-19T04:44:10.556Z,21.32
2023-08-19T04:46:41.478Z,21.22
2023-08-19T04:49:11.663Z,21.12
2023-08-19T04:51:42.524Z,21.05
2023-08-19T04:54:12.914Z,21.01
2023-08-19T04:56:43.104Z,21.05
2023-08-19T04:59:20.470Z,21.59
2023-08-19T05:01:50.867Z,21.95
2023-08-19T05:04:25.498Z,21.98
2023-08-19T05:06:56.957Z,22.06
2023-08-19T05:09:28.460Z,22.16
2023-08-19T05:11:59.338Z,22.12
2023-08-19T05:14:34.499Z,22.20
2023-08-19T05:17:08.772Z,22.28
2023-08-19T05:19:40.466Z,22.26
2023-08-19T05:22:10.717Z,22.22
2023-08-19T05:24:41.150Z,22.07
2023-08-19T05:27:11.494Z,22.19
2023-08-19T05:29:44.283Z,23.20
2023-08-19T05:32:16.992Z,24.55
2023-08-19T05:34:48.502Z,25.51
2023-08-19T05:37:23.025Z,26.04
2023-08-19T05:39:53.309Z,26.61
2023-08-19T05:42:23.429Z,26.77
2023-08-19T05:44:57.445Z,26.97
2023-08-19T05:47:29.920Z,27.22
2023-08-19T05:50:00.521Z,27.42
2023-08-19T05:52:33.862Z,27.64
2023-08-19T05:55:10.886Z,27.84
2023-08-19T05:57:40.909Z,27.77
2023-08-19T06:00:15.200Z,27.50
2023-08-19T06:02:45.507Z,26.91
2023-08-19T06:05:16.545Z,26.15
2023-08-19T06:08:01.906Z,25.84
2023-08-19T06:10:34.365Z,25.73
2023-08-19T06:13:04.827Z,25.55
2023-08-19T06:15:51.261Z,25.23
2023-08-19T06:18:21.630Z,25.24
2023-08-19T06:20:59.968Z,25.05
2023-08-19T06:23:30.435Z,24.91
2023-08-19T06:26:01.151Z,24.87
2023-08-19T06:28:31.446Z,24.80
2023-08-19T06:31:04.353Z,24.72
2023-08-19T06:33:39.468Z,24.65
2023-08-19T06:36:14.284Z,24.64
2023-08-19T06:38:51.354Z,24.67
2023-08-19T06:41:22.284Z,24.59
2023-08-19T06:43:55.228Z,24.69
2023-08-19T06:46:29.227Z,24.75
2023-08-19T06:49:08.255Z,24.80
2023-08-19T06:51:40.830Z,24.79
2023-08-19T06:54:13.103Z,24.82
2023-08-19T06:56:55.457Z,24.87
2023-08-19T06:59:38.258Z,24.88
2023-08-19T07:02:13.105Z,24.91
2023-08-19T07:04:49.731Z,25.04
2023-08-19T07:07:26.253Z,25.10
2023-08-19T07:09:57.113Z,25.12
2023-08-19T07:12:30.333Z,25.15
2023-08-19T07:15:01.226Z,25.15
2023-08-19T07:17:42.089Z,25.21
2023-08-19T07:20:17.224Z,25.25
2023-08-19T07:22:50.841Z,25.33
2023-08-19T07:25:22.133Z,25.35
2023-08-19T07:27:53.334Z,25.40
2023-08-19T07:30:26.870Z,25.41
2023-08-19T07:33:01.333Z,25.39
2023-08-19T07:35:33.985Z,25.38
2023-08-19T07:38:04.294Z,25.37
2023-08-19T07:40:36.825Z,25.34
2023-08-19T07:43:11.231Z,25.46
2023-08-19T07:45:42.570Z,25.65
2023-08-19T07:48:16.214Z,25.71
2023-08-19T07:50:46.135Z,25.72
2023-08-19T07:53:16.854Z,25.78
2023-08-19T07:55:48.906Z,25.87
2023-08-19T07:58:19.173Z,25.93
2023-08-19T08:00:49.509Z,26.06
2023-08-19T08:03:22.729Z,26.19
2023-08-19T08:05:56.705Z,26.30
2023-08-19T08:08:26.907Z,26.37
2023-08-19T08:10:57.125Z,26.26
2023-08-19T08:13:27.480Z,26.44
2023-08-19T08:15:57.834Z,26.47
2023-08-19T08:18:31.001Z,26.58
2023-08-19T08:21:01.123Z,26.60
2023-08-19T08:23:31.300Z,26.72
2023-08-19T08:26:05.517Z,26.85
2023-08-19T08:28:36.688Z,26.95
2023-08-19T08:31:09.741Z,27.03
2023-08-19T08:33:46.669Z,27.10
2023-08-19T08:36:19.769Z,27.19
2023-08-19T08:38:50.684Z,27.23
2023-08-19T08:41:21.164Z,27.26
2023-08-19T08:43:51.918Z,27.14
2023-08-19T08:46:23.506Z,27.15
2023-08-19T08:48:57.721Z,27.16
2023-08-19T08:51:30.156Z,27.19
2023-08-19T08:54:09.501Z,27.13
2023-08-19T08:56:39.556Z,27.35
2023-08-19T08:59:15.461Z,27.40
2023-08-19T09:01:49.407Z,27.54
2023-08-19T09:04:28.637Z,27.65
2023-08-19T09:07:16.617Z,27.80
2023-08-19T09:09:49.830Z,27.94
2023-08-19T09:12:20.618Z,27.98
2023-08-19T09:14:55.569Z,28.07
2023-08-19T09:17:26.338Z,28.12
2023-08-19T09:20:01.724Z,28.17
2023-08-19T09:22:33.064Z,28.30
2023-08-19T09:25:06.498Z,28.55
2023-08-19T09:27:37.745Z,28.83
2023-08-19T09:30:10.162Z,28.97
2023-08-19T09:32:45.772Z,29.04
2023-08-19T09:35:20.658Z,29.17
2023-08-19T09:37:54.748Z,29.37
2023-08-19T09:40:26.638Z,29.45
2023-08-19T09:42:59.214Z,29.45
2023-08-19T09:45:31.196Z,29.47
2023-08-19T09:48:01.408Z,29.54
2023-08-19T09:50:34.519Z,29.60
2023-08-19T09:53:04.893Z,29.60
2023-08-19T09:55:36.063Z,29.66
2023-08-19T09:58:06.384Z,29.73
2023-08-19T10:00:36.816Z,29.82
2023-08-19T10:03:10.181Z,29.88
2023-08-19T10:05:46.051Z,29.95
2023-08-19T10:08:30.146Z,30.02
2023-08-19T10:11:00.697Z,30.12
2023-08-19T10:13:31.557Z,30.31
2023-08-19T10:16:02.435Z,30.47
2023-08-19T10:18:37.069Z,30.55
2023-08-19T10:21:14.773Z,30.62
2023-08-19T10:23:48.061Z,30.53
2023-08-19T10:26:19.629Z,30.71
2023-08-19T10:29:13.161Z,30.85
2023-08-19T10:31:45.854Z,30.93
2023-08-19T10:34:29.977Z,31.03
2023-08-19T10:37:15.022Z,31.22
2023-08-19T10:39:51.513Z,31.28
2023-08-19T10:42:24.680Z,31.34
2023-08-19T10:44:56.830Z,31.34
2023-08-19T10:47:27.230Z,31.41
2023-08-19T10:50:05.899Z,31.41
2023-08-19T10:52:39.672Z,31.41
2023-08-19T10:55:19.472Z,31.55
2023-08-19T10:57:52.212Z,31.93
2023-08-19T11:00:28.649Z,32.17
2023-08-19T11:02:58.912Z,32.31
2023-08-19T11:05:30.744Z,32.40
2023-08-19T11:08:03.490Z,32.50
2023-08-19T11:10:36.345Z,32.47
2023-08-19T11:13:09.932Z,32.29
2023-08-19T11:15:41.193Z,32.29
2023-08-19T11:18:12.156Z,32.27
2023-08-19T11:20:42.759Z,32.28
2023-08-19T11:23:28.773Z,32.30
2023-08-19T11:26:00.104Z,32.23
2023-08-19T11:28:30.525Z,32.26
2023-08-19T11:31:00.931Z,32.29
2023-08-19T11:33:35.182Z,32.40
2023-08-19T11:36:05.711Z,32.48
2023-08-19T11:38:39.312Z,32.52
2023-08-19T11:41:16.912Z,32.54
2023-08-19T11:43:50.930Z,32.59
2023-08-19T11:46:21.363Z,32.70
2023-08-19T11:48:52.440Z,32.82
2023-08-19T11:51:25.623Z,32.88
2023-08-19T11:54:05.929Z,32.83
2023-08-19T11:56:53.998Z,32.59
2023-08-19T11:59:33.123Z,32.43
2023-08-19T12:02:06.927Z,32.39
2023-08-19T12:04:38.365Z,32.38
2023-08-19T12:07:13.417Z,32.45
2023-08-19T12:09:46.316Z,32.51
2023-08-19T12:12:19.383Z,32.64
2023-08-19T12:14:49.880Z,32.66
2023-08-19T12:17:19.940Z,32.66
2023-08-19T12:19:50.758Z,32.68
2023-08-19T12:22:20.865Z,32.60
2023-08-19T12:24:55.470Z,32.49
2023-08-19T12:27:26.067Z,32.47
2023-08-19T12:29:56.290Z,32.40
2023-08-19T12:32:29.019Z,32.40
2023-08-19T12:35:00.872Z,32.47
2023-08-19T12:37:30.959Z,32.62
2023-08-19T12:40:05.141Z,32.74
2023-08-19T12:42:47.576Z,32.80
2023-08-19T12:45:19.199Z,32.71
2023-08-19T12:47:49.680Z,32.60
2023-08-19T12:50:20.364Z,32.52
2023-08-19T12:52:50.596Z,32.51
2023-08-19T12:55:27.020Z,32.45
2023-08-19T12:58:01.163Z,32.41
2023-08-19T13:00:32.881Z,32.39
2023-08-19T13:03:03.982Z,32.38
2023-08-19T13:05:34.801Z,32.35
2023-08-19T13:08:05.607Z,32.36
2023-08-19T13:10:38.358Z,32.37
2023-08-19T13:13:12.201Z,32.29
2023-08-19T13:15:45.881Z,32.24
2023-08-19T13:18:20.215Z,32.48
2023-08-19T13:20:52.418Z,32.50
2023-08-19T13:23:22.514Z,32.48
2023-08-19T13:25:57.963Z,32.34
2023-08-19T13:28:29.557Z,32.18
2023-08-19T13:30:59.991Z,32.03
2023-08-19T13:33:30.314Z,31.92
2023-08-19T13:36:06.669Z,31.78
2023-08-19T13:38:36.951Z,31.65
2023-08-19T13:41:09.869Z,31.59
2023-08-19T13:43:41.933Z,31.47
2023-08-19T13:46:12.161Z,31.35
2023-08-19T13:48:42.466Z,31.20
2023-08-19T13:51:17.617Z,31.10
2023-08-19T13:53:47.690Z,30.95
2023-08-19T13:56:20.363Z,30.90
2023-08-19T13:58:50.528Z,30.84
2023-08-19T14:01:21.025Z,30.76
2023-08-19T14:03:51.103Z,30.68
2023-08-19T14:06:21.656Z,30.65
2023-08-19T14:08:51.858Z,30.60
2023-08-19T14:11:31.323Z,30.58
2023-08-19T14:14:04.325Z,30.55
2023-08-19T14:16:38.111Z,30.53
2023-08-19T14:19:10.475Z,30.34
2023-08-19T14:21:40.646Z,30.47
2023-08-19T14:24:11.875Z,30.44
2023-08-19T14:26:45.474Z,30.44
2023-08-19T14:29:15.924Z,30.42
2023-08-19T14:31:46.192Z,30.45
2023-08-19T14:34:18.098Z,30.47
2023-08-19T14:36:48.286Z,30.50
2023-08-19T14:39:21.399Z,30.52
2023-08-19T14:42:10.164Z,30.56
2023-08-19T14:44:40.243Z,30.52
2023-08-19T14:47:10.584Z,30.52
2023-08-19T14:49:40.672Z,30.47
2023-08-19T14:52:10.819Z,30.43
2023-08-19T14:54:43.189Z,30.26
2023-08-19T14:57:16.543Z,30.25
2023-08-19T14:59:46.660Z,30.17
2023-08-19T15:02:17.179Z,30.08
2023-08-19T15:04:49.488Z,30.08
2023-08-19T15:07:19.756Z,30.07
2023-08-19T15:09:49.783Z,30.10
2023-08-19T15:12:22.615Z,30.15
2023-08-19T15:14:53.050Z,30.21
2023-08-19T15:17:36.398Z,30.23
2023-08-19T15:20:08.980Z,30.21
2023-08-19T15:22:40.494Z,30.33
2023-08-19T15:25:12.469Z,30.45
2023-08-19T15:27:48.521Z,30.57
2023-08-19T15:30:24.858Z,30.64
2023-08-19T15:33:01.067Z,30.80
2023-08-19T15:35:32.014Z,30.85
2023-08-19T15:38:04.304Z,30.81
2023-08-19T15:40:34.481Z,30.75
2023-08-19T15:43:07.680Z,30.66
2023-08-19T15:45:40.118Z,30.55
2023-08-19T15:48:13.300Z,30.37
2023-08-19T15:50:43.433Z,30.32
2023-08-19T15:53:29.273Z,30.20
2023-08-19T15:56:00.051Z,30.26
2023-08-19T15:58:33.218Z,30.20
2023-08-19T16:01:11.346Z,30.28
2023-08-19T16:03:41.845Z,30.34
2023-08-19T16:06:11.864Z,30.41
2023-08-19T16:08:42.019Z,30.37
2023-08-19T16:11:12.502Z,30.32
2023-08-19T16:13:45.261Z,30.31
2023-08-19T16:16:19.155Z,30.25
2023-08-19T16:18:49.320Z,30.19
2023-08-19T16:21:19.582Z,30.17
2023-08-19T16:23:49.904Z,30.23
2023-08-19T16:26:20.292Z,30.25
2023-08-19T16:28:53.182Z,30.24
2023-08-19T16:31:23.297Z,30.19
2023-08-19T16:33:53.389Z,30.02
2023-08-19T16:36:23.712Z,29.92
2023-08-19T16:38:55.091Z,29.84
2023-08-19T16:41:25.229Z,29.68
2023-08-19T16:43:57.973Z,29.39
2023-08-19T16:46:28.238Z,29.34
2023-08-19T16:48:58.441Z,29.17
2023-08-19T16:51:26.211Z,29.04
2023-08-19T16:53:56.554Z,28.92
2023-08-19T16:56:26.961Z,28.82
2023-08-19T16:58:59.767Z,28.72
2023-08-19T17:01:30.179Z,28.57
2023-08-19T17:04:00.390Z,28.61
2023-08-19T17:06:30.527Z,28.55
2023-08-19T17:09:04.962Z,28.48
2023-08-19T17:11:35.218Z,28.40
2023-08-19T17:14:08.913Z,28.34
2023-08-19T17:16:41.057Z,28.18
2023-08-19T17:19:11.683Z,28.21
2023-08-19T17:21:43.495Z,28.19
2023-08-19T17:24:13.599Z,28.12
2023-08-19T17:26:44.160Z,28.05
2023-08-19T17:29:17.105Z,27.99
2023-08-19T17:31:47.209Z,27.90
2023-08-19T17:34:17.440Z,27.83
2023-08-19T17:36:47.800Z,27.77
2023-08-19T17:39:18.983Z,27.73
2023-08-19T17:41:49.377Z,27.70
2023-08-19T17:44:23.163Z,27.68
2023-08-19T17:46:57.067Z,27.60
2023-08-19T17:49:27.055Z,27.57
2023-08-19T17:51:59.123Z,27.42
2023-08-19T17:54:30.031Z,27.32
2023-08-19T17:57:00.353Z,27.26
2023-08-19T17:59:33.013Z,27.19
2023-08-19T18:02:09.881Z,27.10
2023-08-19T18:04:40.038Z,27.00
2023-08-19T18:07:12.307Z,26.92
2023-08-19T18:09:42.258Z,26.84
2023-08-19T18:12:13.434Z,26.78
2023-08-19T18:14:47.619Z,26.72
2023-08-19T18:17:17.664Z,26.64
2023-08-19T18:19:47.850Z,26.64
2023-08-19T18:22:18.097Z,26.63
2023-08-19T18:24:50.480Z,26.60
2023-08-19T18:27:20.526Z,26.53
2023-08-19T18:29:53.275Z,26.46
2023-08-19T18:32:23.334Z,26.39
2023-08-19T18:35:02.615Z,26.38
2023-08-19T18:37:33.512Z,26.26
2023-08-19T18:40:08.103Z,26.29
2023-08-19T18:42:38.233Z,26.23
2023-08-19T18:45:15.254Z,26.17
2023-08-19T18:48:09.297Z,26.09
2023-08-19T18:50:41.009Z,26.02
2023-08-19T18:53:14.027Z,25.96
2023-08-19T18:55:45.242Z,25.86
2023-08-19T18:58:15.956Z,25.81
2023-08-19T19:00:49.748Z,25.75
2023-08-19T19:03:19.886Z,25.70
2023-08-19T19:05:50.946Z,25.67
2023-08-19T19:08:21.220Z,25.65
2023-08-19T19:10:51.519Z,25.60
2023-08-19T19:13:21.644Z,25.55
2023-08-19T19:15:56.718Z,25.50
2023-08-19T19:18:26.900Z,25.46
2023-08-19T19:20:57.090Z,25.45
2023-08-19T19:23:27.437Z,25.42
2023-08-19T19:25:57.716Z,25.41
2023-08-19T19:28:30.494Z,25.36
2023-08-19T19:31:28.803Z,25.32
2023-08-19T19:33:58.836Z,25.30
2023-08-19T19:36:32.649Z,25.12
2023-08-19T19:39:04.491Z,25.20
2023-08-19T19:41:42.138Z,25.14
2023-08-19T19:44:20.119Z,25.09
2023-08-19T19:46:54.204Z,25.03
2023-08-19T19:49:25.047Z,24.96
2023-08-19T19:52:02.606Z,24.91
2023-08-19T19:54:34.411Z,24.87
2023-08-19T19:57:07.256Z,24.84
2023-08-19T19:59:37.960Z,24.80
2023-08-19T20:02:11.079Z,24.74
2023-08-19T20:04:43.691Z,24.67
2023-08-19T20:07:13.930Z,24.64
2023-08-19T20:09:44.088Z,24.58
2023-08-19T20:12:21.401Z,24.54
2023-08-19T20:14:52.233Z,24.48
2023-08-19T20:17:24.961Z,24.47
2023-08-19T20:19:55.047Z,24.43
2023-08-19T20:22:29.496Z,24.39
2023-08-19T20:25:00.193Z,24.40
2023-08-19T20:27:30.373Z,24.37
2023-08-19T20:30:02.747Z,24.41
2023-08-19T20:32:39.717Z,24.44
2023-08-19T20:35:11.477Z,24.33
2023-08-19T20:37:41.526Z,24.49
2023-08-19T20:40:12.660Z,24.49
2023-08-19T20:42:42.832Z,24.45
2023-08-19T20:45:14.975Z,24.39
2023-08-19T20:47:49.857Z,24.33
2023-08-19T20:50:20.058Z,24.26
2023-08-19T20:52:50.509Z,24.21
2023-08-19T20:55:20.699Z,24.18
2023-08-19T20:57:52.423Z,24.18
2023-08-19T21:00:25.023Z,24.23
2023-08-19T21:02:58.079Z,24.19
2023-08-19T21:05:29.717Z,24.12
2023-08-19T21:07:59.915Z,24.01
2023-08-19T21:10:31.878Z,23.87
2023-08-19T21:13:01.980Z,23.96
2023-08-19T21:15:34.782Z,23.99
2023-08-19T21:18:08.712Z,24.04
2023-08-19T21:20:38.943Z,24.04
2023-08-19T21:23:11.422Z,24.04
2023-08-19T21:25:41.948Z,24.01
2023-08-19T21:28:12.348Z,23.98
2023-08-19T21:30:43.318Z,23.91
2023-08-19T21:33:16.079Z,23.89
2023-08-19T21:35:46.274Z,23.88
2023-08-19T21:38:18.990Z,23.87
2023-08-19T21:40:49.550Z,23.85
2023-08-19T21:43:19.631Z,23.80
2023-08-19T21:45:49.993Z,23.68
2023-08-19T21:48:22.738Z,23.59
2023-08-19T21:50:53.517Z,23.55
2023-08-19T21:53:26.637Z,23.51
2023-08-19T21:55:56.722Z,23.50
2023-08-19T21:58:28.335Z,23.51
2023-08-19T22:01:00.102Z,23.49
2023-08-19T22:03:33.554Z,23.52
2023-08-19T22:06:10.053Z,23.51
2023-08-19T22:08:40.264Z,23.52
2023-08-19T22:11:11.355Z,23.52
2023-08-19T22:13:41.349Z,23.50
2023-08-19T22:16:11.652Z,23.49
2023-08-19T22:18:44.582Z,23.51
2023-08-19T22:21:14.737Z,23.51
2023-08-19T22:23:44.741Z,23.48
2023-08-19T22:26:14.817Z,23.50
2023-08-19T22:28:44.965Z,23.44
2023-08-19T22:31:15.378Z,23.42
2023-08-19T22:33:51.325Z,23.36
2023-08-19T22:36:22.572Z,23.36
2023-08-19T22:38:54.218Z,23.31
2023-08-19T22:41:24.293Z,23.30
2023-08-19T22:43:54.844Z,23.25
2023-08-19T22:46:26.878Z,23.26
2023-08-19T22:48:59.998Z,23.26
2023-08-19T22:51:30.015Z,23.25
2023-08-19T22:54:05.016Z,23.22
2023-08-19T22:56:37.514Z,23.20
2023-08-19T22:59:10.175Z,23.13
2023-08-19T23:01:40.364Z,23.17
2023-08-19T23:04:13.191Z,23.16
2023-08-19T23:06:43.488Z,23.13
2023-08-19T23:09:13.538Z,23.12
2023-08-19T23:11:43.645Z,23.11
2023-08-19T23:14:13.806Z,23.11
2023-08-19T23:16:44.935Z,23.09
2023-08-19T23:19:20.645Z,23.12
2023-08-19T23:21:50.792Z,23.10
2023-08-19T23:24:26.839Z,23.08
2023-08-19T23:26:59.423Z,23.08
2023-08-19T23:29:32.561Z,23.08
2023-08-19T23:32:02.610Z,23.05
2023-08-19T23:34:50.760Z,23.02
2023-08-19T23:37:20.793Z,22.96
2023-08-19T23:39:53.014Z,22.95
2023-08-19T23:42:23.076Z,22.93
2023-08-19T23:44:53.134Z,22.93
2023-08-19T23:47:26.521Z,22.91
2023-08-19T23:50:10.855Z,22.90
2023-08-19T23:52:44.964Z,22.84
2023-08-19T23:55:17.107Z,22.79
2023-08-19T23:57:51.737Z,22.74
